Time;durP1;ratioP1;P1;durP2;ratioP2;P2;SDS_P1;SDS_P2;PMS_P1;PMS_P2;Temp;Humidity;BMP_temperature;BMP_pressure;BME280_temperature;BME280_humidity;BME280_pressure;Samples;Min_cycle;Max_cycle;Signal;HPM_P1;HPM_P2
2022/11/13 00:00:05;;;;;;;;;;;;;;;5.85;100.00;100676.16;4957695;29;19973;-85
2022/11/13 00:02:34;;;;;;;;;;;;;;;5.88;100.00;100682.25;4957657;29;19922;-83
2022/11/13 00:04:59;;;;;;;;;;;;;;;5.93;100.00;100682.22;4957695;29;19925;-85
2022/11/13 00:07:24;;;;;;;;;;;;;;;5.87;100.00;100675.28;4957618;29;19927;-84
2022/11/13 00:09:54;;;;;;;;;;;;;;;5.90;100.00;100674.34;4957675;28;20293;-88
2022/11/13 00:12:19;;;;;;;;;;;;;;;5.90;100.00;100664.69;4956274;28;20390;-88
2022/11/13 00:14:45;;;;;;;;;;;;;;;5.91;100.00;100663.81;4972202;28;19973;-85
2022/11/13 00:17:10;;;;;;;;;;;;;;;5.91;100.00;100661.19;4957326;29;20037;-84
2022/11/13 00:19:35;;;;;;;;;;;;;;;5.96;100.00;100659.41;4957333;29;19918;-82
2022/11/13 00:22:01;;;;;;;;;;;;;;;5.95;100.00;100660.28;4957272;29;19934;-81
2022/11/13 00:24:26;;;;;;;;;;;;;;;5.95;100.00;100654.13;4957215;29;20346;-83
2022/11/13 00:26:51;;;;;;;;;;;;;;;5.95;100.00;100648.88;4954827;29;19965;-84
2022/11/13 00:29:17;;;;;;;;;;;;;;;5.93;100.00;100642.75;4957118;29;19914;-83
2022/11/13 00:31:42;;;;;;;;;;;;;;;5.93;100.00;100638.34;4957154;28;19918;-81
2022/11/13 00:34:09;;;;;;;;;;;;;;;5.92;100.00;100636.63;4955978;29;19915;-82
2022/11/13 00:36:34;;;;;;;;;;;;;;;5.99;100.00;100633.06;4972014;28;20012;-84
2022/11/13 00:39:08;;;;;;;;;;;;;;;5.99;100.00;100633.06;4957145;29;19979;-91
2022/11/13 00:41:33;;;;;;;;;;;;;;;5.99;100.00;100624.31;4955721;28;19921;-84
2022/11/13 00:43:59;;;;;;;;;;;;;;;6.01;100.00;100617.28;4955636;28;19918;-84
2022/11/13 00:46:24;;;;;;;;;;;;;;;5.99;100.00;100614.66;4956776;29;19922;-86
2022/11/13 00:48:49;;;;;;;;;;;;;;;6.06;100.00;100618.09;4957348;28;19922;-85
2022/11/13 00:51:15;;;;;;;;;;;;;;;6.08;100.00;100616.31;4955509;29;19919;-88
2022/11/13 00:53:40;;;;;;;;;;;;;;;6.08;100.00;100612.81;4955720;29;19925;-84
2022/11/13 00:56:12;;;;;;;;;;;;;;;6.13;100.00;100617.16;4955499;29;20036;-86
2022/11/13 00:58:38;;;;;;;;;;;;;;;6.11;100.00;100613.66;4955574;29;19989;-87
2022/11/13 01:01:05;;;;;;;;;;;;;;;6.14;100.00;100610.09;4971578;28;20369;-84
2022/11/13 01:03:33;;;;;;;;;;;;;;;6.13;100.00;100611.03;4956642;28;20134;-87
2022/11/13 01:05:58;;;;;;;;;;;;;;;6.12;100.00;100606.63;4956712;29;19919;-83
2022/11/13 01:08:23;;;;;;;;;;;;;;;6.18;100.00;100607.44;4956565;29;19918;-85
2022/11/13 01:10:49;;;;;;;;;;;;;;;6.15;100.00;100617.13;4955378;29;19926;-86
2022/11/13 01:13:15;;;;;;;;;;;;;;;6.15;100.00;100611.88;4956450;29;19919;-86
2022/11/13 01:15:41;;;;;;;;;;;;;;;6.19;100.00;100613.59;4955112;29;19922;-85
2022/11/13 01:18:07;;;;;;;;;;;;;;;6.19;100.00;100618.84;4955227;28;19944;-85
2022/11/13 01:20:43;;;;;;;;;;;;;;;6.22;100.00;100618.78;4954990;29;19925;-85
2022/11/13 01:23:08;;;;;;;;;;;;;;;6.22;100.00;100616.16;4971269;28;19965;-85
2022/11/13 01:25:48;;;;;;;;;;;;;;;6.22;100.00;100616.16;4956410;29;20389;-90
2022/11/13 01:28:13;;;;;;;;;;;;;;;6.25;100.00;100616.13;4956427;29;19981;-84
2022/11/13 01:30:39;;;;;;;;;;;;;;;6.25;100.00;100608.22;4944854;29;19926;-86
2022/11/13 01:33:04;;;;;;;;;;;;;;;6.27;100.00;100598.56;4956206;29;20381;-85
2022/11/13 01:35:29;;;;;;;;;;;;;;;6.32;100.00;100587.97;4956692;29;19918;-85
2022/11/13 01:37:54;;;;;;;;;;;;;;;6.37;100.00;100596.69;4970973;28;20533;-89
2022/11/13 01:40:20;;;;;;;;;;;;;;;6.38;100.00;100594.91;4954978;29;20017;-87
2022/11/13 01:42:45;;;;;;;;;;;;;;;6.41;100.00;100584.34;4970000;28;19929;-86
2022/11/13 01:45:29;;;;;;;;;;;;;;;6.38;100.00;100581.75;4955932;28;19926;-86
2022/11/13 01:47:54;;;;;;;;;;;;;;;6.38;100.00;100576.50;4956058;29;20349;-85
2022/11/13 01:50:19;;;;;;;;;;;;;;;6.41;100.00;100571.19;4970683;28;19969;-85
2022/11/13 01:52:44;;;;;;;;;;;;;;;6.43;100.00;100575.56;4955413;28;19962;-83
2022/11/13 01:55:11;;;;;;;;;;;;;;;6.44;100.00;100565.88;4955927;29;19922;-86
2022/11/13 01:57:37;;;;;;;;;;;;;;;6.41;100.00;100573.81;4954600;28;19970;-87
2022/11/13 03:20:38;;;;;;;;;;;;;;;6.92;100.00;100497.56;5778967;23;19974;-85
2022/11/13 03:23:04;;;;;;;;;;;;;;;6.90;100.00;100502.00;4977796;28;19922;-85
2022/11/13 03:25:29;;;;;;;;;;;;;;;6.90;100.00;100497.59;4976902;28;19922;-85
2022/11/13 03:27:54;;;;;;;;;;;;;;;6.91;100.00;100493.19;4976682;28;19918;-86
2022/11/13 03:30:20;;;;;;;;;;;;;;;6.93;100.00;100491.41;4978204;28;19957;-87
2022/11/13 03:32:45;;;;;;;;;;;;;;;6.96;100.00;100501.91;4992696;28;19925;-86
2022/11/13 03:35:10;;;;;;;;;;;;;;;6.98;100.00;100500.09;4976218;28;19926;-86
2022/11/13 03:37:38;;;;;;;;;;;;;;;7.02;100.00;100487.72;4977742;28;20357;-88
2022/11/13 03:40:04;;;;;;;;;;;;;;;7.01;100.00;100493.91;4977613;28;19925;-87
2022/11/13 03:42:29;;;;;;;;;;;;;;;7.00;100.00;100487.75;4976454;28;20301;-87
2022/11/13 03:44:54;;;;;;;;;;;;;;;7.03;100.00;100487.69;4977548;28;19918;-88
2022/11/13 03:47:28;;;;;;;;;;;;;;;7.05;100.00;100488.56;4977549;28;20441;-88
2022/11/13 03:49:53;;;;;;;;;;;;;;;7.07;100.00;100483.28;4974833;28;20363;-88
2022/11/13 03:52:19;;;;;;;;;;;;;;;7.10;100.00;100477.94;4976209;28;20004;-87
2022/11/13 03:54:44;;;;;;;;;;;;;;;7.11;100.00;100484.94;4976306;28;19926;-86
2022/11/13 03:57:09;;;;;;;;;;;;;;;7.13;100.00;100487.56;4975970;28;19976;-84
2022/11/13 03:59:34;;;;;;;;;;;;;;;7.14;100.00;100481.41;4977366;28;20281;-84
2022/11/13 04:02:00;;;;;;;;;;;;;;;7.11;100.00;100478.81;4977246;28;19929;-84
2022/11/13 04:04:25;;;;;;;;;;;;;;;7.14;100.00;100479.63;4977108;28;19918;-85
2022/11/13 04:06:50;;;;;;;;;;;;;;;7.16;100.00;100474.31;4976073;28;19973;-85
2022/11/13 04:09:16;;;;;;;;;;;;;;;7.16;100.00;100466.41;4977058;28;20029;-86
2022/11/13 04:11:41;;;;;;;;;;;;;;;7.17;100.00;100476.06;4977122;28;19922;-85
2022/11/13 04:14:06;;;;;;;;;;;;;;;7.19;100.00;100476.91;4977013;28;19921;-87
2022/11/13 04:16:31;;;;;;;;;;;;;;;7.19;100.00;100471.63;4976544;28;20012;-86
2022/11/13 04:18:56;;;;;;;;;;;;;;;7.19;100.00;100467.22;4976802;28;20285;-88
2022/11/13 04:21:22;;;;;;;;;;;;;;;7.21;100.00;100473.34;4975561;28;19922;-87
2022/11/13 04:23:47;;;;;;;;;;;;;;;7.20;100.00;100468.09;4977017;28;19918;-87
2022/11/13 04:26:12;;;;;;;;;;;;;;;7.22;100.00;100467.16;4991726;28;20013;-87
2022/11/13 04:28:37;;;;;;;;;;;;;;;7.23;100.00;100463.66;4977031;28;20346;-85
2022/11/13 04:31:03;;;;;;;;;;;;;;;7.24;100.00;100459.22;4976964;28;19919;-86
2022/11/13 04:33:28;;;;;;;;;;;;;;;7.28;100.00;100455.66;4976661;28;19918;-87
2022/11/13 04:35:56;;;;;;;;;;;;;;;7.31;100.00;100455.59;4975278;28;19929;-87
2022/11/13 04:38:21;;;;;;;;;;;;;;;7.32;100.00;100454.69;4976449;28;19922;-87
2022/11/13 04:42:47;;;;;;;;;;;;;;;7.31;100.00;100457.34;4976752;28;19973;-85
2022/11/13 04:43:35;;;;;;;;;;;;;;;7.30;100.00;100448.56;4976414;28;19914;-88
2022/11/13 04:46:00;;;;;;;;;;;;;;;7.30;100.00;100450.34;4976241;28;20045;-85
2022/11/13 04:48:25;;;;;;;;;;;;;;;7.35;100.00;100445.84;4976404;28;19920;-87
2022/11/13 04:50:50;;;;;;;;;;;;;;;7.33;100.00;100443.25;4975071;28;19950;-85
2022/11/13 04:53:16;;;;;;;;;;;;;;;7.36;100.00;100437.91;4976388;28;20289;-85
2022/11/13 04:55:41;;;;;;;;;;;;;;;7.40;100.00;100438.72;4976467;28;20389;-85
2022/11/13 04:58:06;;;;;;;;;;;;;;;7.39;100.00;100439.63;4976137;28;19919;-85
2022/11/13 05:00:31;;;;;;;;;;;;;;;7.40;100.00;100434.34;4975077;28;20362;-85
2022/11/13 05:02:57;;;;;;;;;;;;;;;7.40;100.00;100431.69;4976108;28;20009;-85
2022/11/13 05:05:22;;;;;;;;;;;;;;;7.45;100.00;100435.09;4974839;28;19918;-85
2022/11/13 05:07:47;;;;;;;;;;;;;;;7.45;100.00;100432.47;4974936;28;19919;-88
2022/11/13 05:10:13;;;;;;;;;;;;;;;7.47;100.00;100432.44;4975976;28;19919;-85
2022/11/13 05:12:38;;;;;;;;;;;;;;;7.48;100.00;100436.78;4976056;28;19926;-84
2022/11/13 05:15:04;;;;;;;;;;;;;;;7.46;100.00;100423.63;4976036;28;19918;-87
2022/11/13 05:17:29;;;;;;;;;;;;;;;7.50;100.00;100428.84;4974651;28;20439;-86
2022/11/13 05:19:54;;;;;;;;;;;;;;;7.50;100.00;100431.50;4974552;28;19922;-87
2022/11/13 05:22:19;;;;;;;;;;;;;;;7.53;100.00;100428.78;4974333;28;19961;-87
2022/11/13 05:24:45;;;;;;;;;;;;;;;7.53;100.00;100423.53;4975909;28;19941;-87
2022/11/13 05:27:10;;;;;;;;;;;;;;;7.56;100.00;100418.19;4974763;28;19922;-85
2022/11/13 05:29:35;;;;;;;;;;;;;;;7.56;100.00;100413.81;4975789;28;20358;-87
2022/11/13 13:57:53;;;;;;;;;;;;;;;9.34;100.00;99841.00;4954157;28;19980;-85
2022/11/13 14:00:19;;;;;;;;;;;;;;;9.35;100.00;99843.59;4955815;29;19954;-86
2022/11/13 14:02:46;;;;;;;;;;;;;;;9.34;100.00;99835.72;4954621;29;19920;-85
2022/11/13 14:05:23;;;;;;;;;;;;;;;9.34;100.00;99830.44;4953777;28;19919;-85
2022/11/13 14:07:49;;;;;;;;;;;;;;;9.35;100.00;99832.13;4953688;29;19966;-85
2022/11/13 14:10:16;;;;;;;;;;;;;;;9.36;100.00;99824.16;4953575;28;19925;-85
2022/11/13 14:12:42;;;;;;;;;;;;;;;9.36;100.00;99815.34;4954765;28;19921;-86
2022/11/13 14:15:17;;;;;;;;;;;;;;;9.35;100.00;99810.97;4954820;29;20297;-86
2022/11/13 14:17:42;;;;;;;;;;;;;;;9.38;100.00;99814.38;4954640;29;19958;-86
2022/11/13 14:20:10;;;;;;;;;;;;;;;9.38;100.00;99806.47;4954701;29;19958;-84
2022/11/13 14:22:36;;;;;;;;;;;;;;;9.36;100.00;99810.06;4953348;29;19946;-84
2022/11/13 14:25:01;;;;;;;;;;;;;;;9.37;100.00;99803.88;4953210;29;20370;-87
2022/11/13 14:27:27;;;;;;;;;;;;;;;9.36;100.00;99808.28;4954652;29;20002;-84
2022/11/13 14:29:57;;;;;;;;;;;;;;;9.37;100.00;99807.38;4947041;28;19966;-84
2022/11/13 14:32:37;;;;;;;;;;;;;;;9.37;100.00;99811.81;4943372;29;19926;-84
2022/11/13 14:35:04;;;;;;;;;;;;;;;9.38;100.00;99802.94;4940135;28;19918;-84
2022/11/13 14:37:37;;;;;;;;;;;;;;;9.37;100.00;99799.44;4942328;29;19966;-84
2022/11/13 14:40:04;;;;;;;;;;;;;;;9.40;100.00;99794.03;4939528;29;19957;-85
2022/11/13 14:42:36;;;;;;;;;;;;;;;9.39;100.00;99788.78;4940164;29;20378;-85
2022/11/13 14:45:13;;;;;;;;;;;;;;;9.40;100.00;99788.75;4941078;29;20025;-86
2022/11/13 14:47:39;;;;;;;;;;;;;;;9.40;100.00;99788.75;4937596;29;19926;-84
2022/11/13 14:50:13;;;;;;;;;;;;;;;9.41;100.00;99781.66;4935216;29;19923;-83
2022/11/13 14:52:39;;;;;;;;;;;;;;;9.40;100.00;99782.59;4946820;29;19958;-84
2022/11/13 14:55:07;;;;;;;;;;;;;;;9.42;100.00;99783.41;4952640;29;19954;-87
2022/11/13 14:57:32;;;;;;;;;;;;;;;9.42;100.00;99780.75;4952682;28;19927;-83
2022/11/13 15:00:18;;;;;;;;;;;;;;;9.41;100.00;99773.72;4941122;29;20458;-84
2022/11/13 15:02:43;;;;;;;;;;;;;;;9.44;100.00;99779.78;4942487;29;19938;-83
2022/11/13 15:05:08;;;;;;;;;;;;;;;9.46;100.00;99771.75;4949391;28;19922;-83
2022/11/13 15:07:38;;;;;;;;;;;;;;;9.43;100.00;99766.63;4952029;28;20349;-82
2022/11/13 15:10:04;;;;;;;;;;;;;;;9.44;100.00;99757.75;4946328;29;19922;-83
2022/11/13 15:12:29;;;;;;;;;;;;;;;9.45;100.00;99748.91;4948816;29;19969;-86
2022/11/13 15:14:54;;;;;;;;;;;;;;;9.46;100.00;99742.66;4948898;29;20294;-85
2022/11/13 15:17:21;;;;;;;;;;;;;;;9.45;100.00;99739.16;4941016;29;19927;-82
2022/11/13 15:19:47;;;;;;;;;;;;;;;9.47;100.00;99747.03;4943267;29;20394;-82
2022/11/13 15:22:13;;;;;;;;;;;;;;;9.48;100.00;99747.91;4946941;29;19922;-84
2022/11/13 15:24:39;;;;;;;;;;;;;;;9.47;100.00;99735.63;4946562;28;19923;-82
2022/11/13 15:27:24;;;;;;;;;;;;;;;9.47;100.00;99738.25;4957536;29;19921;-83
2022/11/13 15:29:49;;;;;;;;;;;;;;;9.47;100.00;99747.03;4949670;29;19962;-81
2022/11/13 15:32:15;;;;;;;;;;;;;;;9.49;100.00;99733.75;4950012;29;20020;-83
2022/11/13 15:34:40;;;;;;;;;;;;;;;9.47;100.00;99725.88;4949673;28;20389;-83
2022/11/13 15:37:12;;;;;;;;;;;;;;;9.49;100.00;99731.13;4949476;28;19927;-80
2022/11/13 15:39:38;;;;;;;;;;;;;;;9.49;100.00;99721.38;4946492;28;20290;-83
2022/11/13 15:42:05;;;;;;;;;;;;;;;9.48;100.00;99711.75;4941065;29;19919;-83
2022/11/13 15:44:30;;;;;;;;;;;;;;;9.50;100.00;99709.91;4941318;29;19919;-81
2022/11/13 15:46:55;;;;;;;;;;;;;;;9.49;100.00;99707.31;4941002;29;19919;-83
2022/11/13 15:49:21;;;;;;;;;;;;;;;9.48;100.00;99710.88;4941092;29;19919;-82
2022/11/13 15:51:46;;;;;;;;;;;;;;;9.49;100.00;99700.22;4941012;29;19925;-85
2022/11/13 15:54:22;;;;;;;;;;;;;;;9.51;100.00;99702.81;4955770;29;19918;-83
2022/11/13 15:56:48;;;;;;;;;;;;;;;9.50;100.00;99694.03;4939608;29;19929;-82
2022/11/13 15:59:16;;;;;;;;;;;;;;;9.52;100.00;99694.81;4940963;29;19919;-84
2022/11/13 16:01:41;;;;;;;;;;;;;;;9.49;100.00;99702.03;4940982;29;20370;-81
2022/11/13 16:04:06;;;;;;;;;;;;;;;9.50;100.00;99699.31;4941202;29;20034;-83
2022/11/13 16:06:33;;;;;;;;;;;;;;;9.51;100.00;99709.00;4941048;29;19961;-83
2022/11/13 16:09:00;;;;;;;;;;;;;;;9.50;100.00;99712.53;4944844;29;19929;-83
2022/11/13 16:11:28;;;;;;;;;;;;;;;9.51;100.00;99710.75;4952873;28;19923;-85
2022/11/13 16:13:53;;;;;;;;;;;;;;;9.51;100.00;99711.63;4937910;29;19922;-84
2022/11/13 16:16:22;;;;;;;;;;;;;;;9.52;100.00;99708.03;4955572;29;19922;-84
2022/11/13 16:18:49;;;;;;;;;;;;;;;9.51;100.00;99709.00;4956991;28;20435;-84
2022/11/13 16:21:15;;;;;;;;;;;;;;;9.52;100.00;99717.78;4939407;29;19977;-82
2022/11/13 16:23:40;;;;;;;;;;;;;;;9.52;100.00;99713.34;4937477;29;20021;-83
2022/11/13 16:26:12;;;;;;;;;;;;;;;9.55;100.00;99722.94;4936429;29;19991;-83
2022/11/13 16:28:37;;;;;;;;;;;;;;;9.52;100.00;99721.28;4937655;29;19931;-82
2022/11/13 16:31:03;;;;;;;;;;;;;;;9.54;100.00;99721.22;4940327;28;20286;-84
2022/11/13 16:33:28;;;;;;;;;;;;;;;9.54;100.00;99716.81;4943570;29;19934;-84
2022/11/13 16:35:53;;;;;;;;;;;;;;;9.54;100.00;99706.22;4936024;29;20009;-83
2022/11/13 16:38:19;;;;;;;;;;;;;;;9.53;100.00;99706.28;4936924;29;20467;-81
2022/11/13 16:40:44;;;;;;;;;;;;;;;9.54;100.00;99711.50;4946658;28;19929;-85
2022/11/13 16:43:10;;;;;;;;;;;;;;;9.56;100.00;99720.25;4944423;29;19925;-82
2022/11/13 16:45:36;;;;;;;;;;;;;;;9.56;100.00;99722.03;4939160;29;19933;-82
2022/11/13 16:48:02;;;;;;;;;;;;;;;9.56;100.00;99724.69;4947383;28;19945;-84
2022/11/13 16:50:29;;;;;;;;;;;;;;;9.56;100.00;99730.81;4944929;29;20428;-84
2022/11/13 16:53:04;;;;;;;;;;;;;;;9.56;100.00;99733.47;4950294;28;20013;-84
2022/11/13 16:55:29;;;;;;;;;;;;;;;9.58;100.00;99733.41;4949854;29;20349;-84
2022/11/13 16:57:54;;;;;;;;;;;;;;;9.58;100.00;99736.91;4941274;29;19927;-85
2022/11/13 17:00:20;;;;;;;;;;;;;;;9.57;100.00;99732.56;4942543;29;19949;-85
2022/11/13 17:02:48;;;;;;;;;;;;;;;9.60;100.00;99740.34;4964669;28;19925;-84
2022/11/13 17:05:18;;;;;;;;;;;;;;;9.57;100.00;99737.84;4969669;28;19923;-89
2022/11/13 17:07:44;;;;;;;;;;;;;;;9.58;100.00;99738.69;4958469;28;19922;-86
2022/11/13 17:10:14;;;;;;;;;;;;;;;9.58;100.00;99744.00;4954466;29;19921;-83
2022/11/13 17:12:39;;;;;;;;;;;;;;;9.55;100.00;99736.16;4955010;28;19989;-84
2022/11/13 17:15:05;;;;;;;;;;;;;;;9.60;100.00;99731.56;4947233;28;20005;-82
2022/11/13 17:17:30;;;;;;;;;;;;;;;9.58;100.00;99734.25;4950344;28;20370;-85
2022/11/13 17:19:55;;;;;;;;;;;;;;;9.57;100.00;99734.31;4964334;28;19949;-83
2022/11/13 17:22:20;;;;;;;;;;;;;;;9.59;100.00;99735.13;4951990;28;20007;-86
2022/11/13 17:24:46;;;;;;;;;;;;;;;9.59;100.00;99740.44;4953041;28;19926;-82
2022/11/13 17:27:11;;;;;;;;;;;;;;;9.60;100.00;99726.25;4972145;28;20000;-84
2022/11/13 17:29:37;;;;;;;;;;;;;;;9.60;100.00;99734.19;4953382;28;19929;-83
2022/11/13 17:32:02;;;;;;;;;;;;;;;9.61;100.00;99742.06;4955119;29;19918;-83
2022/11/13 17:34:28;;;;;;;;;;;;;;;9.62;100.00;99735.88;4953978;29;20520;-84
2022/11/13 17:36:53;;;;;;;;;;;;;;;9.61;100.00;99741.22;4956457;28;19926;-86
2022/11/13 17:39:21;;;;;;;;;;;;;;;9.60;100.00;99729.75;4955409;29;19925;-87
2022/11/13 17:41:49;;;;;;;;;;;;;;;9.61;100.00;99744.72;4953287;29;20016;-84
2022/11/13 17:44:17;;;;;;;;;;;;;;;9.64;100.00;99744.59;4951351;29;19923;-88
2022/11/13 17:46:42;;;;;;;;;;;;;;;9.62;100.00;99746.44;4948852;28;19926;-83
2022/11/13 17:49:16;;;;;;;;;;;;;;;9.64;100.00;99752.53;4956653;28;20009;-87
2022/11/13 17:51:51;;;;;;;;;;;;;;;9.61;100.00;99752.66;4942995;28;19922;-84
2022/11/13 17:54:16;;;;;;;;;;;;;;;9.64;100.00;99749.03;4948890;28;19927;-82
2022/11/13 17:56:41;;;;;;;;;;;;;;;9.65;100.00;99742.81;4946088;28;20307;-83
2022/11/13 17:59:15;;;;;;;;;;;;;;;9.66;100.00;99746.34;4952144;29;19923;-86
2022/11/13 18:01:40;;;;;;;;;;;;;;;9.67;100.00;99748.03;4958920;28;19922;-84
2022/11/13 18:04:05;;;;;;;;;;;;;;;9.66;100.00;99746.34;4961875;28;19934;-85
2022/11/13 18:06:31;;;;;;;;;;;;;;;9.65;100.00;99748.09;4953166;29;20290;-84
2022/11/13 18:08:56;;;;;;;;;;;;;;;9.66;100.00;99746.34;4954775;29;19925;-83
2022/11/13 18:11:23;;;;;;;;;;;;;;;9.67;100.00;99745.38;4949360;28;19922;-85
2022/11/13 18:13:49;;;;;;;;;;;;;;;9.67;100.00;99748.03;4962088;28;19918;-83
2022/11/13 18:16:22;;;;;;;;;;;;;;;9.67;100.00;99759.50;4952434;28;19945;-86
2022/11/13 18:18:53;;;;;;;;;;;;;;;9.66;100.00;99746.34;4950412;28;19938;-82
2022/11/13 18:21:20;;;;;;;;;;;;;;;9.66;100.00;99751.63;4939625;29;19990;-84
2022/11/13 18:23:46;;;;;;;;;;;;;;;9.68;100.00;99752.41;4952310;29;19965;-85
2022/11/13 18:26:15;;;;;;;;;;;;;;;9.67;100.00;99745.38;4949109;29;20385;-84
2022/11/13 18:28:40;;;;;;;;;;;;;;;9.67;100.00;99742.75;4936437;29;19987;-85
2022/11/13 18:31:07;;;;;;;;;;;;;;;9.68;100.00;99736.53;4953557;29;20338;-88
2022/11/13 18:33:32;;;;;;;;;;;;;;;9.69;100.00;99735.63;4953146;28;20273;-82
2022/11/13 18:35:57;;;;;;;;;;;;;;;9.69;100.00;99731.19;4953995;28;19918;-83
2022/11/13 18:38:22;;;;;;;;;;;;;;;9.66;100.00;99730.47;4956681;28;19965;-83
2022/11/13 18:40:48;;;;;;;;;;;;;;;9.68;100.00;99733.91;4972501;28;20321;-82
2022/11/13 18:43:13;;;;;;;;;;;;;;;9.67;100.00;99732.16;4969610;28;19925;-82
2022/11/13 18:45:39;;;;;;;;;;;;;;;9.68;100.00;99731.25;4972327;28;20407;-82
2022/11/13 18:48:04;;;;;;;;;;;;;;;9.66;100.00;99733.09;4973716;28;20435;-86
2022/11/13 18:50:31;;;;;;;;;;;;;;;9.66;100.00;99725.16;4972698;28;19929;-85
2022/11/13 18:52:57;;;;;;;;;;;;;;;9.66;100.00;99725.16;4961326;28;19923;-84
2022/11/13 18:55:22;;;;;;;;;;;;;;;9.65;100.00;99724.28;4965073;28;19929;-84
2022/11/13 18:57:57;;;;;;;;;;;;;;;9.64;100.00;99723.44;4972290;28;20461;-85
2022/11/13 19:00:23;;;;;;;;;;;;;;;9.66;100.00;99720.72;4972256;28;19952;-84
2022/11/13 19:02:49;;;;;;;;;;;;;;;9.64;100.00;99723.44;4973727;28;19922;-84
2022/11/13 19:05:15;;;;;;;;;;;;;;;9.64;100.00;99728.72;4973550;28;19919;-85
2022/11/13 19:07:42;;;;;;;;;;;;;;;9.65;100.00;99719.00;4973347;28;19918;-84
2022/11/13 19:10:08;;;;;;;;;;;;;;;9.66;100.00;99727.81;4972433;28;19925;-86
2022/11/13 19:12:33;;;;;;;;;;;;;;;9.66;100.00;99725.16;4973278;28;19919;-82
2022/11/13 19:14:59;;;;;;;;;;;;;;;9.65;100.00;99721.63;4971619;28;19918;-82
2022/11/13 19:17:24;;;;;;;;;;;;;;;9.67;100.00;99716.28;4950725;29;19923;-82
2022/11/13 19:19:49;;;;;;;;;;;;;;;9.68;100.00;99718.03;4959469;28;20285;-83
2022/11/13 19:22:17;;;;;;;;;;;;;;;9.64;100.00;99712.00;4971550;28;19932;-86
2022/11/13 19:24:42;;;;;;;;;;;;;;;9.64;100.00;99712.84;4970874;28;20378;-84
2022/11/13 19:27:08;;;;;;;;;;;;;;;9.67;100.00;99711.00;4973229;28;19965;-84
2022/11/13 19:29:33;;;;;;;;;;;;;;;9.67;100.00;99711.00;4973335;28;19922;-82
2022/11/13 19:31:58;;;;;;;;;;;;;;;9.67;100.00;99711.88;4973284;28;20263;-83
2022/11/13 19:34:23;;;;;;;;;;;;;;;9.68;100.00;99720.66;4973028;28;20042;-82
2022/11/13 19:36:50;;;;;;;;;;;;;;;9.67;100.00;99716.28;4973151;28;19918;-82
2022/11/13 19:39:15;;;;;;;;;;;;;;;9.68;100.00;99710.94;4973143;28;20373;-83
2022/11/13 19:41:40;;;;;;;;;;;;;;;9.69;100.00;99709.19;4970518;28;19924;-83
2022/11/13 19:44:07;;;;;;;;;;;;;;;9.70;100.00;99708.22;4973121;28;20451;-83
2022/11/13 19:46:33;;;;;;;;;;;;;;;9.70;100.00;99705.59;4974547;28;20012;-83
2022/11/13 19:48:58;;;;;;;;;;;;;;;9.68;100.00;99697.72;4975492;28;20025;-85
2022/11/13 19:51:24;;;;;;;;;;;;;;;9.70;100.00;99692.34;4976401;28;20385;-82
2022/11/13 19:53:56;;;;;;;;;;;;;;;9.69;100.00;99701.25;4976733;28;20297;-85
2022/11/13 19:56:42;;;;;;;;;;;;;;;9.70;100.00;99692.34;4975341;28;19922;-89
2022/11/13 19:59:09;;;;;;;;;;;;;;;9.69;100.00;99688.00;4975480;28;20274;-86
2022/11/13 20:01:34;;;;;;;;;;;;;;;9.69;100.00;99695.94;4973056;28;19918;-84
2022/11/13 20:04:01;;;;;;;;;;;;;;;9.70;100.00;99701.19;4946543;28;20298;-83
2022/11/13 20:06:27;;;;;;;;;;;;;;;9.69;100.00;99699.44;4947990;29;20613;-87
2022/11/13 20:08:52;;;;;;;;;;;;;;;9.72;100.00;99694.03;4956086;29;19922;-84
2022/11/13 20:11:20;;;;;;;;;;;;;;;9.74;100.00;99696.63;4955935;28;20366;-86
2022/11/13 20:13:46;;;;;;;;;;;;;;;9.74;100.00;99694.81;4957251;28;20452;-88
2022/11/13 20:16:13;;;;;;;;;;;;;;;9.73;100.00;99697.53;4971956;28;19922;-83
2022/11/13 20:18:38;;;;;;;;;;;;;;;9.71;100.00;99697.59;4956815;28;20408;-83
2022/11/13 20:21:04;;;;;;;;;;;;;;;9.73;100.00;99694.88;4956857;28;19919;-83
2022/11/13 20:23:29;;;;;;;;;;;;;;;9.73;100.00;99697.53;4955464;29;19914;-83
2022/11/13 20:25:56;;;;;;;;;;;;;;;9.71;100.00;99704.69;4952488;29;20014;-84
2022/11/13 20:28:22;;;;;;;;;;;;;;;9.72;100.00;99699.31;4946546;29;19930;-84
2022/11/13 20:30:47;;;;;;;;;;;;;;;9.74;100.00;99696.63;4947605;29;19919;-83
2022/11/13 20:33:12;;;;;;;;;;;;;;;9.74;100.00;99696.63;4947503;29;19930;-83
2022/11/13 20:35:38;;;;;;;;;;;;;;;9.73;100.00;99694.88;4954773;29;19922;-82
2022/11/13 20:38:03;;;;;;;;;;;;;;;9.73;100.00;99697.53;4948956;29;19930;-83
2022/11/13 20:40:28;;;;;;;;;;;;;;;9.73;100.00;99693.13;4948118;29;19922;-83
2022/11/13 20:42:53;;;;;;;;;;;;;;;9.73;100.00;99690.47;4945717;29;19954;-83
2022/11/13 20:45:19;;;;;;;;;;;;;;;9.76;100.00;99702.69;4948990;29;20790;-84
2022/11/13 20:47:44;;;;;;;;;;;;;;;9.77;100.00;99704.44;4944819;29;19926;-83
2022/11/13 20:50:09;;;;;;;;;;;;;;;9.78;100.00;99703.47;4946509;29;19923;-84
2022/11/13 20:52:35;;;;;;;;;;;;;;;9.78;100.00;99684.97;4949452;28;20421;-82
2022/11/13 20:55:00;;;;;;;;;;;;;;;9.76;100.00;99694.75;4954542;29;19923;-84
2022/11/13 20:57:25;;;;;;;;;;;;;;;9.75;100.00;99695.69;4966791;28;19934;-84
2022/11/13 20:59:50;;;;;;;;;;;;;;;9.75;100.00;99691.25;4954804;29;19931;-83
2022/11/13 21:02:16;;;;;;;;;;;;;;;9.75;100.00;99696.56;4955727;29;20412;-84
2022/11/13 21:04:41;;;;;;;;;;;;;;;9.77;100.00;99696.50;4955299;29;19966;-85
2022/11/13 21:07:12;;;;;;;;;;;;;;;9.73;100.00;99694.88;4954390;29;20005;-87
2022/11/13 21:09:38;;;;;;;;;;;;;;;9.75;100.00;99695.69;4954532;29;20025;-81
2022/11/13 21:12:05;;;;;;;;;;;;;;;9.75;100.00;99691.25;4955895;29;20013;-84
2022/11/13 21:14:30;;;;;;;;;;;;;;;9.75;100.00;99696.56;4955954;29;19914;-83
2022/11/13 21:16:56;;;;;;;;;;;;;;;9.75;100.00;99701.00;4955887;29;19925;-83
2022/11/13 21:19:23;;;;;;;;;;;;;;;9.76;100.00;99694.75;4955340;28;20409;-83
2022/11/13 21:21:48;;;;;;;;;;;;;;;9.75;100.00;99695.69;4955231;29;20025;-83
2022/11/13 21:24:14;;;;;;;;;;;;;;;9.72;100.00;99691.38;4955206;29;19961;-84
2022/11/13 21:26:39;;;;;;;;;;;;;;;9.75;100.00;99701.84;4952835;29;19965;-84
2022/11/13 21:29:04;;;;;;;;;;;;;;;9.76;100.00;99695.59;4955149;29;20021;-83
2022/11/13 21:31:30;;;;;;;;;;;;;;;9.74;100.00;99694.81;4967281;28;19925;-82
2022/11/13 21:33:56;;;;;;;;;;;;;;;9.73;100.00;99692.22;4949228;29;19929;-83
2022/11/13 21:36:22;;;;;;;;;;;;;;;9.76;100.00;99687.66;4955561;28;19924;-83
2022/11/13 21:39:08;;;;;;;;;;;;;;;9.76;100.00;99684.16;4970165;28;19919;-86
2022/11/13 21:41:33;;;;;;;;;;;;;;;9.77;100.00;99683.25;4953698;28;19925;-83
2022/11/13 21:44:06;;;;;;;;;;;;;;;9.74;100.00;99689.53;4954793;29;19923;-82
2022/11/13 21:46:36;;;;;;;;;;;;;;;9.74;100.00;99691.31;4969730;28;19922;-83
2022/11/13 21:49:05;;;;;;;;;;;;;;;9.73;100.00;99676.34;4972863;28;19985;-83
2022/11/13 21:51:31;;;;;;;;;;;;;;;9.71;100.00;99681.72;4974720;28;19918;-83
2022/11/13 21:53:57;;;;;;;;;;;;;;;9.73;100.00;99671.94;4974540;28;19926;-83
2022/11/13 21:56:23;;;;;;;;;;;;;;;9.74;100.00;99670.16;4973070;28;19977;-83
2022/11/13 21:58:48;;;;;;;;;;;;;;;9.74;100.00;99667.50;4973127;28;19940;-83
2022/11/13 22:01:13;;;;;;;;;;;;;;;9.75;100.00;99663.94;4974521;28;19965;-82
2022/11/13 22:03:39;;;;;;;;;;;;;;;9.74;100.00;99660.41;4974165;28;20681;-82
2022/11/13 22:06:13;;;;;;;;;;;;;;;9.73;100.00;99655.19;4966631;28;19922;-82
2022/11/13 22:08:38;;;;;;;;;;;;;;;9.75;100.00;99646.28;4933921;29;19926;-82
2022/11/13 22:11:04;;;;;;;;;;;;;;;9.77;100.00;99646.22;4947414;29;19919;-82
2022/11/13 22:13:29;;;;;;;;;;;;;;;9.78;100.00;99639.97;4954969;29;20389;-83
2022/11/13 22:15:55;;;;;;;;;;;;;;;9.76;100.00;99642.69;4953083;29;19926;-82
2022/11/13 22:18:20;;;;;;;;;;;;;;;9.76;100.00;99647.13;4945449;29;19923;-82
2022/11/13 22:20:48;;;;;;;;;;;;;;;9.78;100.00;99642.63;4938508;29;20401;-83
2022/11/13 22:23:13;;;;;;;;;;;;;;;9.77;100.00;99643.56;4954752;29;19925;-82
2022/11/13 22:25:38;;;;;;;;;;;;;;;9.76;100.00;99653.28;4953477;28;19919;-82